Temple, North Dakota
Current Conditions -  °F | °C
As of 4:15 AM on Friday 31 Oct 2014 (Local Time) from KD60 Reporting Station
Few Clouds Few Clouds  
Wind Chill: 13°   Ceiling: Unl
Heat Index: 25°   Visibility: 10mi
Dew Point: 25°   Wind: 13mph
Humidity: 100%   Direction: 170°S
Pressure: 30.46"   Gusts: 21mph
Location:  48.3991°N, 103.074°W
Report Text: KD60 310915Z AUTO 17011G18KT 10SM FEW012 M04/M04 A3046 RMK AO2
Loading
Personal Weather Stations






























Interactive Weather Map
Tropical Storm Tracking
New forecast layout! Learn more

10-Day Weather Forecast

Advertisements
Track Severe Weather on mobile